createdAt,value
2024-02-09T00:01:15.653Z,1.73
2024-02-09T00:03:43.039Z,2.73
2024-02-09T00:06:12.639Z,3.03
2024-02-09T00:08:42.191Z,2.91
2024-02-09T00:11:09.878Z,2.52
2024-02-09T00:13:36.600Z,3.12
2024-02-09T00:16:03.432Z,2.94
2024-02-09T00:18:30.141Z,2.49
2024-02-09T00:20:58.638Z,2.48
2024-02-09T00:23:25.888Z,2.34
2024-02-09T00:25:53.147Z,2.26
2024-02-09T00:28:21.432Z,2.44
2024-02-09T00:30:48.814Z,2.42
2024-02-09T00:33:16.036Z,2.71
2024-02-09T00:35:43.656Z,2.47
2024-02-09T00:38:13.381Z,2.54
2024-02-09T00:40:40.769Z,2.46
2024-02-09T00:43:08.318Z,2.85
2024-02-09T00:45:35.900Z,2.50
2024-02-09T00:48:04.377Z,2.52
2024-02-09T00:50:32.042Z,2.44
2024-02-09T00:53:02.071Z,2.14
2024-02-09T00:55:30.722Z,2.55
2024-02-09T00:58:00.354Z,2.17
2024-02-09T01:00:31.905Z,1.91
2024-02-09T01:02:59.386Z,2.20
2024-02-09T01:05:26.121Z,2.32
2024-02-09T01:07:53.017Z,1.83
2024-02-09T01:10:19.794Z,2.02
2024-02-09T01:13:04.981Z,2.23
2024-02-09T01:15:50.374Z,2.04
2024-02-09T01:18:35.813Z,2.00
2024-02-09T01:21:21.155Z,1.71
2024-02-09T01:24:06.640Z,1.81
2024-02-09T01:26:51.745Z,1.77
2024-02-09T01:29:36.801Z,1.91
2024-02-09T01:32:21.983Z,1.61
2024-02-09T01:35:07.069Z,2.19
2024-02-09T01:37:52.623Z,1.84
2024-02-09T01:40:37.877Z,1.20
2024-02-09T01:43:23.926Z,1.15
2024-02-09T01:46:11.548Z,1.23
2024-02-09T01:48:58.506Z,1.22
2024-02-09T01:51:44.430Z,1.12
2024-02-09T01:54:30.722Z,1.57
2024-02-09T01:57:16.451Z,1.97
2024-02-09T02:00:02.904Z,1.70
2024-02-09T02:02:57.895Z,1.46
2024-02-09T02:05:44.434Z,1.55
2024-02-09T02:08:29.824Z,1.87
2024-02-09T02:11:15.275Z,2.15
2024-02-09T02:14:00.544Z,2.12
2024-02-09T02:16:45.723Z,2.09
2024-02-09T02:19:31.625Z,1.56
2024-02-09T02:22:24.586Z,1.44
2024-02-09T02:25:16.499Z,1.56
2024-02-09T02:28:01.726Z,1.85
2024-02-09T02:30:47.181Z,1.67
2024-02-09T02:33:32.487Z,1.66
2024-02-09T02:36:17.800Z,1.80
2024-02-09T02:39:03.208Z,2.13
2024-02-09T02:41:29.795Z,1.81
2024-02-09T02:43:56.346Z,2.20
2024-02-09T02:46:22.996Z,2.20
2024-02-09T02:49:08.306Z,1.81
2024-02-09T02:51:53.831Z,1.65
2024-02-09T02:54:39.284Z,1.96
2024-02-09T02:57:24.634Z,1.82
2024-02-09T03:00:11.510Z,1.83
2024-02-09T03:02:57.838Z,1.87
2024-02-09T03:05:26.352Z,2.12
2024-02-09T03:08:43.301Z,1.82
2024-02-09T03:10:44.261Z,1.65
2024-02-09T03:13:10.971Z,1.43
2024-02-09T03:15:37.685Z,1.40
2024-02-09T03:18:07.291Z,1.22
2024-02-09T03:20:33.941Z,1.63
2024-02-09T03:23:03.623Z,1.69
2024-02-09T03:25:30.612Z,1.84
2024-02-09T03:27:57.526Z,1.93
2024-02-09T03:30:24.251Z,1.71
2024-02-09T03:32:52.464Z,1.52
2024-02-09T03:35:19.424Z,1.73
2024-02-09T03:37:46.753Z,1.36
2024-02-09T03:40:13.887Z,1.14
2024-02-09T03:42:42.582Z,1.94
2024-02-09T03:45:09.390Z,1.97
2024-02-09T03:47:36.384Z,1.36
2024-02-09T03:50:05.643Z,1.27
2024-02-09T03:52:32.638Z,1.78
2024-02-09T03:54:59.466Z,1.77
2024-02-09T03:57:26.840Z,1.47
2024-02-09T03:59:54.004Z,1.65
2024-02-09T04:02:21.046Z,1.59
2024-02-09T04:04:50.787Z,1.43
2024-02-09T04:07:22.369Z,1.65
2024-02-09T04:10:14.545Z,1.92
2024-02-09T04:12:38.814Z,1.74
2024-02-09T04:15:06.046Z,1.73
2024-02-09T04:17:32.873Z,1.49
2024-02-09T04:19:59.472Z,1.54
2024-02-09T04:22:28.734Z,1.62
2024-02-09T04:24:56.101Z,0.96
2024-02-09T04:27:22.811Z,1.66
2024-02-09T04:29:49.652Z,1.32
2024-02-09T04:32:16.389Z,1.21
2024-02-09T04:34:43.312Z,1.12
2024-02-09T04:37:10.041Z,1.12
2024-02-09T04:39:36.792Z,1.55
2024-02-09T04:42:03.724Z,1.62
2024-02-09T04:44:30.472Z,1.85
2024-02-09T04:46:57.166Z,1.82
2024-02-09T04:49:23.908Z,1.37
2024-02-09T04:51:50.635Z,1.10
2024-02-09T04:54:17.381Z,1.06
2024-02-09T04:56:44.153Z,1.54
2024-02-09T04:59:11.102Z,1.05
2024-02-09T05:01:39.937Z,1.36
2024-02-09T05:04:10.885Z,1.75
2024-02-09T05:06:37.585Z,0.40
2024-02-09T05:09:07.083Z,0.72
2024-02-09T05:11:37.970Z,1.39
2024-02-09T05:14:08.350Z,1.62
2024-02-09T05:16:37.933Z,1.26
2024-02-09T05:19:04.893Z,1.69
2024-02-09T05:21:35.988Z,1.57
2024-02-09T05:24:04.524Z,0.68
2024-02-09T05:26:31.888Z,1.21
2024-02-09T05:28:58.548Z,1.16
2024-02-09T05:31:27.143Z,1.27
2024-02-09T05:33:54.400Z,1.14
2024-02-09T05:36:22.158Z,1.15
2024-02-09T05:38:49.335Z,1.04
2024-02-09T05:41:19.257Z,1.16
2024-02-09T05:43:48.647Z,1.37
2024-02-09T05:46:15.820Z,1.36
2024-02-09T05:48:45.819Z,1.63
2024-02-09T05:51:13.765Z,1.42
2024-02-09T05:53:42.229Z,1.31
2024-02-09T05:56:16.096Z,0.74
2024-02-09T05:58:43.084Z,1.02
2024-02-09T06:01:10.400Z,1.31
2024-02-09T06:03:39.560Z,1.43
2024-02-09T06:06:06.829Z,1.01
2024-02-09T06:08:35.310Z,1.56
2024-02-09T06:11:03.872Z,1.30
2024-02-09T06:13:31.579Z,1.55
2024-02-09T06:15:59.793Z,1.60
2024-02-09T06:18:27.645Z,1.86
2024-02-09T06:20:55.132Z,1.88
2024-02-09T06:23:27.780Z,1.75
2024-02-09T06:25:54.514Z,1.51
2024-02-09T06:28:21.324Z,1.48
2024-02-09T06:30:48.883Z,1.79
2024-02-09T06:33:17.357Z,0.69
2024-02-09T06:35:44.481Z,1.10
2024-02-09T06:38:12.706Z,0.79
2024-02-09T06:40:40.012Z,0.90
2024-02-09T06:43:07.675Z,0.98
2024-02-09T06:45:37.799Z,0.81
2024-02-09T06:48:07.101Z,1.20
2024-02-09T06:50:35.628Z,1.81
2024-02-09T06:53:03.206Z,1.30
2024-02-09T06:55:30.166Z,1.14
2024-02-09T06:58:00.662Z,1.20
2024-02-09T07:00:27.580Z,1.29
2024-02-09T07:02:56.052Z,0.87
2024-02-09T07:05:25.670Z,0.83
2024-02-09T07:07:56.065Z,1.33
2024-02-09T07:10:26.081Z,0.92
2024-02-09T07:12:55.374Z,1.10
2024-02-09T07:15:22.465Z,1.54
2024-02-09T07:17:50.040Z,2.33
2024-02-09T07:20:19.887Z,1.96
2024-02-09T07:22:47.334Z,1.25
2024-02-09T07:25:14.207Z,1.40
2024-02-09T07:27:41.056Z,0.93
2024-02-09T07:30:08.286Z,1.35
2024-02-09T07:32:34.956Z,1.70
2024-02-09T07:35:02.458Z,1.52
2024-02-09T07:37:29.288Z,1.50
2024-02-09T07:39:55.952Z,2.27
2024-02-09T07:42:24.164Z,2.25
2024-02-09T07:44:50.897Z,2.08
2024-02-09T07:47:17.539Z,2.38
2024-02-09T07:49:44.868Z,2.39
2024-02-09T07:52:11.735Z,2.63
2024-02-09T07:54:38.441Z,2.54
2024-02-09T07:57:07.387Z,2.48
2024-02-09T07:59:34.039Z,2.24
2024-02-09T08:02:00.891Z,1.61
2024-02-09T08:04:32.407Z,2.16
2024-02-09T08:06:59.422Z,2.49
2024-02-09T08:09:26.067Z,2.38
2024-02-09T08:11:52.709Z,2.57
2024-02-09T08:14:19.360Z,3.14
2024-02-09T08:16:47.825Z,3.00
2024-02-09T08:19:14.873Z,2.93
2024-02-09T08:21:41.807Z,3.12
2024-02-09T08:24:11.109Z,4.35
2024-02-09T08:26:45.471Z,5.41
2024-02-09T08:29:19.887Z,5.22
2024-02-09T08:31:46.787Z,5.16
2024-02-09T08:34:14.199Z,6.05
2024-02-09T08:36:41.228Z,4.98
2024-02-09T08:39:07.953Z,5.53
2024-02-09T08:41:35.461Z,5.63
2024-02-09T08:44:03.060Z,5.00
2024-02-09T08:46:30.033Z,4.61
2024-02-09T08:48:57.783Z,5.12
2024-02-09T08:51:24.683Z,5.93
2024-02-09T08:53:51.403Z,5.73
2024-02-09T08:56:18.181Z,4.89
2024-02-09T08:58:47.580Z,5.95
2024-02-09T09:01:14.570Z,5.57
2024-02-09T09:03:41.409Z,5.75
2024-02-09T09:06:09.070Z,5.44
2024-02-09T09:08:36.082Z,5.70
2024-02-09T09:11:03.081Z,6.00
2024-02-09T09:13:30.144Z,5.32
2024-02-09T09:15:56.998Z,4.80
2024-02-09T09:18:23.808Z,5.01
2024-02-09T09:20:51.818Z,4.69
2024-02-09T09:23:18.685Z,5.22
2024-02-09T09:25:45.412Z,4.94
2024-02-09T09:28:13.724Z,4.86
2024-02-09T09:30:40.537Z,5.12
2024-02-09T09:33:07.267Z,5.17
2024-02-09T09:35:34.058Z,6.09
2024-02-09T09:38:00.798Z,6.19
2024-02-09T09:40:32.437Z,6.34
2024-02-09T09:42:59.475Z,6.30
2024-02-09T09:45:26.294Z,5.86
2024-02-09T09:47:56.761Z,5.75
2024-02-09T09:50:23.790Z,6.30
2024-02-09T09:52:53.630Z,6.39
2024-02-09T09:55:21.946Z,6.19
2024-02-09T09:57:50.732Z,5.96
2024-02-09T10:00:18.729Z,6.89
2024-02-09T10:02:45.523Z,6.57
2024-02-09T10:05:12.613Z,6.59
2024-02-09T10:07:41.853Z,6.25
2024-02-09T10:10:12.999Z,6.83
2024-02-09T10:12:40.192Z,6.56
2024-02-09T10:15:07.425Z,7.16
2024-02-09T10:17:34.200Z,7.26
2024-02-09T10:20:01.397Z,6.81
2024-02-09T10:22:28.508Z,7.07
2024-02-09T10:24:56.185Z,6.72
2024-02-09T10:27:22.913Z,6.35
2024-02-09T10:29:49.667Z,6.76
2024-02-09T10:32:16.264Z,6.78
2024-02-09T10:34:43.355Z,7.40
2024-02-09T10:37:17.113Z,7.43
2024-02-09T10:39:48.592Z,7.56
2024-02-09T10:42:17.977Z,7.60
2024-02-09T10:44:47.859Z,7.52
2024-02-09T10:47:16.104Z,7.73
2024-02-09T10:49:45.410Z,7.42
2024-02-09T10:52:15.215Z,7.47
2024-02-09T10:54:49.616Z,7.62
2024-02-09T10:57:16.619Z,7.65
2024-02-09T10:59:43.643Z,8.24
2024-02-09T11:02:10.826Z,7.88
2024-02-09T11:04:37.789Z,8.07
2024-02-09T11:07:05.610Z,8.15
2024-02-09T11:09:32.604Z,8.76
2024-02-09T11:12:00.635Z,9.30
2024-02-09T11:14:35.366Z,8.98
2024-02-09T11:17:08.291Z,9.32
2024-02-09T11:19:39.234Z,8.98
2024-02-09T11:22:06.494Z,8.31
2024-02-09T11:24:34.197Z,8.69
2024-02-09T11:27:01.299Z,8.88
2024-02-09T11:29:28.128Z,9.14
2024-02-09T11:31:58.162Z,8.63
2024-02-09T11:34:28.661Z,8.22
2024-02-09T11:37:02.671Z,8.66
2024-02-09T11:39:30.074Z,8.14
2024-02-09T11:44:23.678Z,9.16
2024-02-09T11:46:53.265Z,8.46
2024-02-09T11:49:21.151Z,8.45
2024-02-09T11:51:50.436Z,7.95
2024-02-09T11:54:18.877Z,8.30
2024-02-09T11:56:47.180Z,7.87
2024-02-09T11:59:13.917Z,8.18
2024-02-09T12:01:43.900Z,7.26
2024-02-09T12:04:11.571Z,7.92
2024-02-09T12:06:38.611Z,8.56
2024-02-09T12:09:05.726Z,7.61
2024-02-09T12:11:32.541Z,8.04
2024-02-09T12:13:59.539Z,8.67
2024-02-09T12:16:26.277Z,9.55
2024-02-09T12:18:53.768Z,9.26
2024-02-09T12:21:20.532Z,10.14
2024-02-09T12:23:47.582Z,10.37
2024-02-09T12:26:15.758Z,10.84
2024-02-09T12:28:42.498Z,10.03
2024-02-09T12:31:09.660Z,9.20
2024-02-09T12:33:43.327Z,9.81
2024-02-09T12:36:10.354Z,8.24
2024-02-09T12:38:44.007Z,8.90
2024-02-09T12:41:15.192Z,8.59
2024-02-09T12:43:46.281Z,8.99
2024-02-09T12:46:13.183Z,9.00
2024-02-09T12:48:41.458Z,8.96
2024-02-09T12:51:08.273Z,8.50
2024-02-09T12:53:36.187Z,8.06
2024-02-09T12:56:04.407Z,8.49
2024-02-09T12:58:31.745Z,8.19
2024-02-09T13:01:01.689Z,9.17
2024-02-09T13:03:29.744Z,9.78
2024-02-09T13:05:56.735Z,9.06
2024-02-09T13:08:23.459Z,8.59
2024-02-09T13:10:51.444Z,8.74
2024-02-09T13:13:19.467Z,9.04
2024-02-09T13:15:46.322Z,8.99
2024-02-09T13:18:13.485Z,9.09
2024-02-09T13:20:44.148Z,8.92
2024-02-09T13:23:12.367Z,9.43
2024-02-09T13:25:41.692Z,8.82
2024-02-09T13:28:11.558Z,8.50
2024-02-09T13:30:38.304Z,8.38
2024-02-09T13:33:05.226Z,7.76
2024-02-09T13:35:33.991Z,7.68
2024-02-09T13:38:00.877Z,8.14
2024-02-09T13:40:27.633Z,8.32
2024-02-09T13:42:54.870Z,7.96
2024-02-09T13:45:22.477Z,7.48
2024-02-09T13:47:49.392Z,8.55
2024-02-09T13:50:16.663Z,8.32
2024-02-09T13:52:47.416Z,8.19
2024-02-09T13:55:14.552Z,8.59
2024-02-09T13:57:45.227Z,8.27
2024-02-09T14:00:13.874Z,8.25
2024-02-09T14:02:40.959Z,7.28
2024-02-09T14:05:07.743Z,7.48
2024-02-09T14:07:34.497Z,7.36
2024-02-09T14:10:01.554Z,7.50
2024-02-09T14:12:29.041Z,8.07
2024-02-09T14:14:55.798Z,7.14
2024-02-09T14:17:22.551Z,7.22
2024-02-09T14:19:49.318Z,7.78
2024-02-09T14:22:16.143Z,7.60
2024-02-09T14:24:42.796Z,6.28
2024-02-09T14:27:12.722Z,6.58
2024-02-09T14:29:40.853Z,6.70
2024-02-09T14:32:10.542Z,5.98
2024-02-09T14:34:39.252Z,6.27
2024-02-09T14:37:06.183Z,6.00
2024-02-09T14:39:32.913Z,6.44
2024-02-09T14:41:59.659Z,5.70
2024-02-09T14:44:26.337Z,5.99
2024-02-09T14:46:53.204Z,6.26
2024-02-09T14:49:20.393Z,5.50
2024-02-09T14:51:47.206Z,5.67
2024-02-09T14:54:13.892Z,5.78
2024-02-09T14:56:48.783Z,6.15
2024-02-09T14:59:22.701Z,5.87
2024-02-09T15:01:51.185Z,6.44
2024-02-09T15:04:18.042Z,6.19
2024-02-09T15:06:45.564Z,5.39
2024-02-09T15:09:12.905Z,5.80
2024-02-09T15:11:42.303Z,6.19
2024-02-09T15:14:10.842Z,5.82
2024-02-09T15:16:38.476Z,5.34
2024-02-09T15:19:05.884Z,5.60
2024-02-09T15:21:33.392Z,6.32
2024-02-09T15:24:00.955Z,5.73
2024-02-09T15:26:27.971Z,6.07
2024-02-09T15:28:57.661Z,6.30
2024-02-09T15:31:24.877Z,5.40
2024-02-09T15:33:51.893Z,5.45
2024-02-09T15:36:19.130Z,5.18
2024-02-09T15:38:45.853Z,5.28
2024-02-09T15:41:38.950Z,5.63
2024-02-09T15:44:05.668Z,5.12
2024-02-09T15:46:53.309Z,5.10
2024-02-09T15:49:26.972Z,5.83
2024-02-09T15:51:56.255Z,5.75
2024-02-09T15:54:23.506Z,5.82
2024-02-09T15:56:50.297Z,5.68
2024-02-09T15:59:17.020Z,5.51
2024-02-09T16:01:45.142Z,4.90
2024-02-09T16:04:11.978Z,5.18
2024-02-09T16:06:38.773Z,5.13
2024-02-09T16:09:05.537Z,5.02
2024-02-09T16:11:33.713Z,5.51
2024-02-09T16:14:07.698Z,5.70
2024-02-09T16:16:45.950Z,5.62
2024-02-09T16:19:12.869Z,5.17
2024-02-09T16:21:41.983Z,4.75
2024-02-09T16:24:10.802Z,4.78
2024-02-09T16:26:37.640Z,4.33
2024-02-09T16:29:04.310Z,4.71
2024-02-09T16:31:31.021Z,4.65
2024-02-09T16:33:59.222Z,4.40
2024-02-09T16:36:26.297Z,5.24
2024-02-09T16:38:53.339Z,4.77
2024-02-09T16:41:20.609Z,5.02
2024-02-09T16:43:47.355Z,4.46
2024-02-09T16:46:14.614Z,4.58
2024-02-09T16:48:42.126Z,4.52
2024-02-09T16:51:09.158Z,5.43
2024-02-09T16:53:35.879Z,5.38
2024-02-09T16:56:02.872Z,5.10
2024-02-09T16:58:29.765Z,4.28
2024-02-09T17:00:57.518Z,4.48
2024-02-09T17:03:24.927Z,4.36
2024-02-09T17:05:51.914Z,4.42
2024-02-09T17:08:19.755Z,4.45
2024-02-09T17:10:47.188Z,4.11
2024-02-09T17:13:15.465Z,4.62
2024-02-09T17:15:42.396Z,3.79
2024-02-09T17:18:09.871Z,4.40
2024-02-09T17:20:41.683Z,4.70
2024-02-09T17:23:16.168Z,4.70
2024-02-09T17:25:42.977Z,3.57
2024-02-09T17:28:11.700Z,3.92
2024-02-09T17:30:38.483Z,4.10
2024-02-09T17:33:05.324Z,4.87
2024-02-09T17:35:32.084Z,4.52
2024-02-09T17:37:59.231Z,3.32
2024-02-09T17:40:26.211Z,3.68
2024-02-09T17:42:52.977Z,3.74
2024-02-09T17:45:20.194Z,3.67
2024-02-09T17:47:54.510Z,3.87
2024-02-09T17:50:22.220Z,4.32
2024-02-09T17:52:49.175Z,3.48
2024-02-09T17:55:18.296Z,3.58
2024-02-09T17:57:47.631Z,3.90
2024-02-09T18:00:15.737Z,3.42
2024-02-09T18:02:44.085Z,3.39
2024-02-09T18:05:11.241Z,3.88
2024-02-09T18:07:38.217Z,3.38
2024-02-09T18:10:05.238Z,3.84
2024-02-09T18:12:32.123Z,3.50
2024-02-09T18:14:59.516Z,3.87
2024-02-09T18:17:26.430Z,3.69
2024-02-09T18:19:53.263Z,3.87
2024-02-09T18:22:20.547Z,4.16
2024-02-09T18:24:50.195Z,3.77
2024-02-09T18:27:16.930Z,3.52
2024-02-09T18:29:43.836Z,3.79
2024-02-09T18:32:10.622Z,3.44
2024-02-09T18:34:37.736Z,3.06
2024-02-09T18:37:04.669Z,3.35
2024-02-09T18:39:31.494Z,3.73
2024-02-09T18:41:58.792Z,3.40
2024-02-09T18:44:25.754Z,3.27
2024-02-09T18:46:56.834Z,3.37
2024-02-09T18:49:25.180Z,3.28
2024-02-09T18:51:52.976Z,3.45
2024-02-09T18:54:19.901Z,3.80
2024-02-09T18:56:47.000Z,3.00
2024-02-09T18:59:13.855Z,3.70
2024-02-09T19:01:47.360Z,3.83
2024-02-09T19:04:18.017Z,3.63
2024-02-09T19:06:45.119Z,3.06
2024-02-09T19:09:11.767Z,2.96
2024-02-09T19:11:38.772Z,2.92
2024-02-09T19:14:05.578Z,3.17
2024-02-09T19:16:35.227Z,3.38
2024-02-09T19:19:03.061Z,3.35
2024-02-09T19:21:31.098Z,3.06
2024-02-09T19:23:58.425Z,3.01
2024-02-09T19:26:25.052Z,3.11
2024-02-09T19:28:52.966Z,3.23
2024-02-09T19:31:20.183Z,3.35
2024-02-09T19:33:48.721Z,3.84
2024-02-09T19:36:20.784Z,3.40
2024-02-09T19:38:47.888Z,3.25
2024-02-09T19:41:18.873Z,3.54
2024-02-09T19:43:46.007Z,3.27
2024-02-09T19:46:12.797Z,3.09
2024-02-09T19:48:41.543Z,3.06
2024-02-09T19:51:11.004Z,3.12
2024-02-09T19:53:39.381Z,3.19
2024-02-09T19:56:07.642Z,3.21
2024-02-09T19:58:35.610Z,3.21
2024-02-09T20:01:04.845Z,3.18
2024-02-09T20:03:31.776Z,3.48
2024-02-09T20:05:59.428Z,3.08
2024-02-09T20:08:27.160Z,2.82
2024-02-09T20:10:54.387Z,3.54
2024-02-09T20:13:22.054Z,3.45
2024-02-09T20:15:50.867Z,3.17
2024-02-09T20:18:27.749Z,3.06
2024-02-09T20:21:05.444Z,2.84
2024-02-09T20:23:32.199Z,2.99
2024-02-09T20:25:58.882Z,2.59
2024-02-09T20:28:25.667Z,2.71
2024-02-09T20:30:52.355Z,2.94
2024-02-09T20:33:20.553Z,2.73
2024-02-09T20:35:52.516Z,3.04
2024-02-09T20:38:19.412Z,3.06
2024-02-09T20:40:46.200Z,2.58
2024-02-09T20:43:12.897Z,2.48
2024-02-09T20:45:39.621Z,2.84
2024-02-09T20:48:09.765Z,2.87
2024-02-09T20:50:39.326Z,2.42
2024-02-09T20:53:07.940Z,2.38
2024-02-09T20:55:36.877Z,2.56
2024-02-09T20:58:04.532Z,2.68
2024-02-09T21:00:36.899Z,2.55
2024-02-09T21:03:06.347Z,2.82
2024-02-09T21:05:36.454Z,2.35
2024-02-09T21:08:04.649Z,2.73
2024-02-09T21:10:31.489Z,2.90
2024-02-09T21:13:01.208Z,2.92
2024-02-09T21:15:32.172Z,2.58
2024-02-09T21:18:00.055Z,2.60
2024-02-09T21:20:27.674Z,3.02
2024-02-09T21:22:56.040Z,2.34
2024-02-09T21:25:23.334Z,2.23
2024-02-09T21:27:50.954Z,2.34
2024-02-09T21:30:25.587Z,2.28
2024-02-09T21:33:01.276Z,2.76
2024-02-09T21:35:29.755Z,1.88
2024-02-09T21:37:58.357Z,2.72
2024-02-09T21:40:28.641Z,2.28
2024-02-09T21:42:58.414Z,2.34
2024-02-09T21:45:25.616Z,2.67
2024-02-09T21:47:54.349Z,1.90
2024-02-09T21:50:21.329Z,1.75
2024-02-09T21:52:48.265Z,1.98
2024-02-09T21:55:15.259Z,2.21
2024-02-09T21:57:42.066Z,2.14
2024-02-09T22:00:12.153Z,2.66
2024-02-09T22:02:44.058Z,2.30
2024-02-09T22:05:11.345Z,2.52
2024-02-09T22:07:38.469Z,2.71
2024-02-09T22:10:05.502Z,2.32
2024-02-09T22:12:32.143Z,2.30
2024-02-09T22:15:00.169Z,2.40
2024-02-09T22:17:31.849Z,1.79
2024-02-09T22:19:59.403Z,1.93
2024-02-09T22:22:27.282Z,1.63
2024-02-09T22:24:54.040Z,1.68
2024-02-09T22:27:20.745Z,1.88
2024-02-09T22:29:50.924Z,2.38
2024-02-09T22:32:17.817Z,2.27
2024-02-09T22:34:45.505Z,2.24
2024-02-09T22:37:13.204Z,1.40
2024-02-09T22:39:42.363Z,1.69
2024-02-09T22:42:09.994Z,0.79
2024-02-09T22:44:39.505Z,1.64
2024-02-09T22:47:08.966Z,1.31
2024-02-09T22:49:37.136Z,1.04
2024-02-09T22:52:04.252Z,0.68
2024-02-09T22:54:30.998Z,0.69
2024-02-09T22:56:57.724Z,0.71
2024-02-09T22:59:24.408Z,0.86
2024-02-09T23:01:51.992Z,1.06
2024-02-09T23:04:26.867Z,0.67
2024-02-09T23:06:53.565Z,0.78
2024-02-09T23:09:20.462Z,1.11
2024-02-09T23:11:47.405Z,1.36
2024-02-09T23:14:19.011Z,1.26
2024-02-09T23:16:48.288Z,1.20
2024-02-09T23:19:21.068Z,1.26
2024-02-09T23:21:50.896Z,0.90
2024-02-09T23:24:22.664Z,-0.29
2024-02-09T23:26:53.305Z,0.34
2024-02-09T23:29:24.830Z,0.14
2024-02-09T23:31:51.879Z,-0.00
2024-02-09T23:34:20.916Z,0.74
2024-02-09T23:36:48.907Z,-0.03
2024-02-09T23:39:16.335Z,-0.22
2024-02-09T23:41:43.243Z,-0.30
2024-02-09T23:44:09.931Z,-0.27
2024-02-09T23:46:36.782Z,-0.28
2024-02-09T23:49:03.798Z,-0.32
2024-02-09T23:51:31.483Z,-0.38
2024-02-09T23:53:58.335Z,-0.37
2024-02-09T23:56:25.025Z,-0.31
2024-02-09T23:58:51.856Z,0.17
